createdAt,value
2019-03-19T00:00:42.876Z,13.72
2019-03-19T00:03:09.187Z,13.77
2019-03-19T00:05:35.493Z,13.84
2019-03-19T00:08:01.812Z,13.78
2019-03-19T00:10:28.126Z,13.75
2019-03-19T00:12:54.425Z,13.68
2019-03-19T00:15:20.733Z,13.66
2019-03-19T00:17:47.037Z,13.61
2019-03-19T00:20:13.378Z,13.60
2019-03-19T00:22:39.683Z,13.58
2019-03-19T00:25:05.992Z,13.54
2019-03-19T00:27:32.300Z,13.53
2019-03-19T00:29:58.604Z,13.51
2019-03-19T00:32:24.930Z,13.44
2019-03-19T00:34:51.281Z,13.43
2019-03-19T00:37:17.589Z,13.35
2019-03-19T00:39:43.898Z,13.28
2019-03-19T00:42:10.206Z,13.17
2019-03-19T00:44:36.509Z,13.10
2019-03-19T00:47:02.838Z,13.00
2019-03-19T00:49:29.156Z,12.92
2019-03-19T00:51:55.471Z,12.89
2019-03-19T00:54:21.793Z,12.84
2019-03-19T00:56:48.093Z,12.84
2019-03-19T00:59:14.412Z,12.82
2019-03-19T01:01:40.722Z,12.76
2019-03-19T01:04:07.031Z,12.71
2019-03-19T01:06:33.342Z,12.66
2019-03-19T01:08:59.652Z,12.54
2019-03-19T01:11:25.966Z,12.46
2019-03-19T01:13:52.316Z,12.44
2019-03-19T01:16:18.609Z,12.34
2019-03-19T01:18:44.915Z,12.24
2019-03-19T01:21:11.231Z,12.20
2019-03-19T01:23:37.541Z,12.17
2019-03-19T01:26:03.854Z,12.09
2019-03-19T01:28:30.158Z,12.08
2019-03-19T01:30:56.472Z,12.00
2019-03-19T01:33:22.774Z,11.98
2019-03-19T01:35:49.081Z,11.89
2019-03-19T01:38:15.394Z,11.85
2019-03-19T01:40:41.765Z,11.88
2019-03-19T01:43:08.070Z,11.75
2019-03-19T01:45:34.379Z,11.68
2019-03-19T01:48:00.693Z,11.65
2019-03-19T01:50:26.997Z,11.57
2019-03-19T01:52:53.308Z,11.48
2019-03-19T01:55:19.609Z,11.40
2019-03-19T01:57:45.922Z,11.33
2019-03-19T02:00:12.232Z,11.31
2019-03-19T02:02:38.542Z,11.26
2019-03-19T02:05:04.849Z,11.29
2019-03-19T02:07:31.160Z,11.28
2019-03-19T02:09:57.471Z,11.31
2019-03-19T02:12:23.779Z,11.33
2019-03-19T02:14:50.088Z,11.35
2019-03-19T02:17:16.394Z,11.35
2019-03-19T02:19:42.709Z,11.44
2019-03-19T02:22:09.020Z,11.48
2019-03-19T02:24:35.354Z,11.50
2019-03-19T02:27:01.667Z,11.49
2019-03-19T02:29:27.989Z,11.45
2019-03-19T02:31:54.298Z,11.38
2019-03-19T02:34:20.608Z,11.29
2019-03-19T02:36:46.921Z,11.21
2019-03-19T02:39:13.219Z,11.18
2019-03-19T02:41:39.522Z,11.11
2019-03-19T02:44:05.828Z,10.95
2019-03-19T02:46:32.148Z,10.94
2019-03-19T02:48:58.456Z,10.83
2019-03-19T02:51:24.764Z,10.77
2019-03-19T02:53:51.114Z,10.71
2019-03-19T02:56:31.811Z,10.62
2019-03-19T02:58:43.784Z,10.58
2019-03-19T03:01:10.066Z,10.46
2019-03-19T03:03:36.381Z,10.32
2019-03-19T03:06:02.692Z,10.24
2019-03-19T03:08:29.001Z,10.16
2019-03-19T03:10:55.306Z,10.17
2019-03-19T03:13:21.622Z,10.20
2019-03-19T03:15:47.937Z,10.09
2019-03-19T03:18:14.271Z,10.05
2019-03-19T03:20:40.571Z,9.98
2019-03-19T03:23:06.881Z,10.01
2019-03-19T03:25:33.193Z,10.05
2019-03-19T03:27:59.506Z,9.99
2019-03-19T03:30:25.818Z,9.93
2019-03-19T03:32:52.146Z,9.86
2019-03-19T03:35:18.478Z,9.80
2019-03-19T03:37:44.749Z,9.72
2019-03-19T03:40:11.052Z,9.65
2019-03-19T03:42:37.366Z,9.65
2019-03-19T03:45:03.682Z,9.61
2019-03-19T03:47:29.986Z,9.57
2019-03-19T03:49:56.297Z,9.53
2019-03-19T03:52:22.612Z,9.47
2019-03-19T03:54:48.915Z,9.38
2019-03-19T03:57:15.226Z,9.37
2019-03-19T03:59:41.539Z,9.33
2019-03-19T04:02:07.850Z,9.28
2019-03-19T04:04:34.179Z,9.27
2019-03-19T04:07:00.485Z,9.26
2019-03-19T04:09:26.801Z,9.26
2019-03-19T04:11:53.117Z,9.24
2019-03-19T04:14:19.427Z,9.18
2019-03-19T04:16:45.775Z,9.16
2019-03-19T04:19:12.079Z,9.10
2019-03-19T04:21:38.387Z,9.11
2019-03-19T04:24:04.697Z,9.02
2019-03-19T04:26:31.028Z,8.96
2019-03-19T04:28:57.342Z,8.94
2019-03-19T04:31:23.651Z,8.93
2019-03-19T04:33:49.953Z,8.86
2019-03-19T04:36:16.259Z,8.89
2019-03-19T04:38:42.582Z,8.87
2019-03-19T04:41:08.885Z,8.83
2019-03-19T04:43:35.194Z,8.96
2019-03-19T04:46:01.499Z,8.96
2019-03-19T04:48:27.819Z,9.00
2019-03-19T04:50:54.123Z,9.05
2019-03-19T04:53:20.440Z,9.03
2019-03-19T04:55:46.750Z,9.04
2019-03-19T04:58:13.060Z,9.07
2019-03-19T05:00:39.394Z,9.02
2019-03-19T05:03:05.701Z,9.10
2019-03-19T05:05:32.004Z,9.27
2019-03-19T05:07:58.312Z,9.32
2019-03-19T05:10:24.622Z,9.27
2019-03-19T05:12:50.950Z,9.35
2019-03-19T05:15:17.260Z,9.37
2019-03-19T05:17:43.568Z,9.35
2019-03-19T05:20:09.884Z,9.45
2019-03-19T05:22:36.196Z,9.47
2019-03-19T05:25:02.518Z,9.47
2019-03-19T05:27:37.008Z,9.49
2019-03-19T05:29:55.121Z,9.54
2019-03-19T05:32:21.430Z,9.51
2019-03-19T05:34:47.760Z,9.69
2019-03-19T05:37:14.066Z,9.81
2019-03-19T05:39:40.370Z,9.86
2019-03-19T05:42:06.720Z,10.01
2019-03-19T05:44:32.990Z,10.09
2019-03-19T05:46:59.334Z,10.04
2019-03-19T05:49:25.641Z,10.04
2019-03-19T05:51:51.957Z,10.16
2019-03-19T05:54:18.275Z,10.15
2019-03-19T05:56:44.602Z,10.32
2019-03-19T05:59:10.940Z,10.45
2019-03-19T06:01:37.245Z,10.58
2019-03-19T06:04:03.588Z,10.57
2019-03-19T06:06:29.893Z,10.89
2019-03-19T06:08:56.200Z,10.96
2019-03-19T06:11:22.510Z,10.69
2019-03-19T06:13:48.819Z,10.61
2019-03-19T06:16:15.146Z,10.82
2019-03-19T06:18:41.482Z,10.84
2019-03-19T06:21:07.792Z,10.70
2019-03-19T06:23:34.106Z,10.66
2019-03-19T06:26:00.413Z,10.59
2019-03-19T06:28:26.728Z,10.40
2019-03-19T06:30:53.036Z,10.54
2019-03-19T06:33:19.341Z,10.66
2019-03-19T06:35:45.656Z,10.75
2019-03-19T06:38:11.965Z,10.81
2019-03-19T06:40:38.277Z,11.01
2019-03-19T06:43:04.589Z,11.27
2019-03-19T06:45:30.921Z,11.28
2019-03-19T06:47:57.227Z,11.64
2019-03-19T06:50:23.533Z,11.89
2019-03-19T06:52:49.845Z,12.21
2019-03-19T06:55:16.143Z,12.02
2019-03-19T06:57:42.464Z,12.59
2019-03-19T07:00:08.755Z,12.47
2019-03-19T07:02:35.069Z,12.76
2019-03-19T07:05:01.382Z,12.97
2019-03-19T07:07:27.744Z,12.87
2019-03-19T07:09:54.054Z,12.98
2019-03-19T07:12:20.394Z,13.08
2019-03-19T07:14:46.716Z,13.12
2019-03-19T07:17:13.041Z,13.15
2019-03-19T07:19:39.396Z,13.09
2019-03-19T07:22:05.702Z,12.74
2019-03-19T07:24:32.011Z,13.06
2019-03-19T07:26:58.352Z,12.90
2019-03-19T07:29:24.640Z,12.84
2019-03-19T07:31:50.949Z,13.12
2019-03-19T07:34:30.258Z,12.84
2019-03-19T07:36:56.570Z,12.62
2019-03-19T07:39:22.883Z,12.80
2019-03-19T07:41:49.190Z,12.93
2019-03-19T07:44:15.495Z,13.51
2019-03-19T07:46:41.805Z,13.88
2019-03-19T07:49:08.113Z,13.86
2019-03-19T07:51:34.439Z,14.19
2019-03-19T07:54:00.760Z,14.37
2019-03-19T07:56:27.074Z,14.36
2019-03-19T07:58:53.381Z,14.33
2019-03-19T08:01:19.691Z,14.54
2019-03-19T08:03:46.004Z,14.54
2019-03-19T08:06:12.343Z,14.62
2019-03-19T08:08:38.653Z,14.88
2019-03-19T08:11:04.963Z,15.16
2019-03-19T08:13:31.302Z,15.03
2019-03-19T08:15:57.673Z,15.17
2019-03-19T08:18:24.043Z,15.17
2019-03-19T08:20:50.361Z,15.28
2019-03-19T08:23:16.670Z,15.34
2019-03-19T08:25:42.981Z,15.52
2019-03-19T08:28:09.288Z,15.59
2019-03-19T08:30:35.594Z,15.85
2019-03-19T08:33:01.903Z,16.18
2019-03-19T08:35:29.263Z,16.18
2019-03-19T08:40:45.737Z,16.30
2019-03-19T08:43:12.046Z,16.14
2019-03-19T08:45:38.353Z,16.16
2019-03-19T08:48:04.661Z,16.27
2019-03-19T08:50:30.980Z,16.54
2019-03-19T08:52:57.302Z,16.83
2019-03-19T08:55:23.602Z,16.92
2019-03-19T08:57:49.908Z,16.74
2019-03-19T09:00:16.222Z,17.10
2019-03-19T09:02:42.523Z,16.91
2019-03-19T09:05:08.837Z,17.02
2019-03-19T09:07:35.139Z,17.10
2019-03-19T09:10:01.452Z,17.27
2019-03-19T09:12:27.764Z,17.42
2019-03-19T09:14:54.075Z,17.58
2019-03-19T09:17:20.385Z,17.57
2019-03-19T09:19:46.693Z,17.88
2019-03-19T09:22:13.007Z,18.00
2019-03-19T09:24:39.332Z,18.07
2019-03-19T09:27:07.790Z,18.04
2019-03-19T09:29:34.098Z,18.22
2019-03-19T09:32:00.406Z,18.27
2019-03-19T09:34:26.722Z,18.27
2019-03-19T09:36:57.239Z,17.75
2019-03-19T09:39:19.385Z,16.82
2019-03-19T09:41:45.701Z,16.87
2019-03-19T09:44:12.012Z,17.47
2019-03-19T09:46:38.341Z,17.78
2019-03-19T09:49:04.649Z,18.38
2019-03-19T09:51:30.965Z,18.49
2019-03-19T09:53:57.267Z,18.48
2019-03-19T09:56:23.575Z,18.32
2019-03-19T09:58:49.888Z,18.63
2019-03-19T10:01:16.261Z,19.04
2019-03-19T10:03:51.548Z,19.27
2019-03-19T10:06:17.437Z,19.32
2019-03-19T10:08:43.806Z,18.88
2019-03-19T10:11:10.168Z,18.98
2019-03-19T10:13:47.612Z,19.03
2019-03-19T10:16:13.945Z,19.09
2019-03-19T10:18:40.248Z,19.38
2019-03-19T10:21:06.563Z,19.71
2019-03-19T10:23:32.962Z,19.17
2019-03-19T10:26:00.259Z,18.55
2019-03-19T10:28:26.568Z,18.73
2019-03-19T10:30:54.037Z,19.28
2019-03-19T10:33:21.340Z,19.42
2019-03-19T10:35:47.643Z,19.85
2019-03-19T10:38:17.208Z,20.30
2019-03-19T10:40:43.518Z,20.35
2019-03-19T10:43:09.831Z,20.44
2019-03-19T10:45:36.129Z,20.70
2019-03-19T10:48:02.455Z,20.28
2019-03-19T10:50:28.764Z,20.23
2019-03-19T10:52:55.098Z,20.53
2019-03-19T10:55:21.419Z,20.45
2019-03-19T10:57:47.734Z,20.75
2019-03-19T11:00:14.131Z,20.77
2019-03-19T11:02:41.852Z,21.11
2019-03-19T11:05:08.220Z,21.49
2019-03-19T11:07:34.492Z,21.24
2019-03-19T11:10:00.801Z,21.02
2019-03-19T11:12:27.117Z,20.83
2019-03-19T11:14:53.468Z,20.95
2019-03-19T11:17:19.782Z,21.34
2019-03-19T11:19:46.095Z,21.26
2019-03-19T11:22:12.403Z,21.67
2019-03-19T11:24:38.718Z,21.52
2019-03-19T11:27:05.023Z,21.37
2019-03-19T11:29:31.329Z,21.64
2019-03-19T11:31:57.658Z,21.62
2019-03-19T11:34:23.959Z,21.75
2019-03-19T11:36:57.794Z,21.55
2019-03-19T11:39:16.581Z,22.11
2019-03-19T11:41:42.898Z,22.45
2019-03-19T11:44:09.211Z,22.72
2019-03-19T11:46:35.551Z,22.89
2019-03-19T11:49:01.837Z,22.85
2019-03-19T11:51:28.150Z,22.82
2019-03-19T11:53:54.495Z,22.86
2019-03-19T11:56:20.905Z,22.66
2019-03-19T11:58:47.204Z,22.90
2019-03-19T12:01:13.510Z,22.71
2019-03-19T12:03:39.843Z,23.01
2019-03-19T12:06:06.147Z,23.01
2019-03-19T12:08:32.455Z,23.09
2019-03-19T12:10:58.763Z,23.13
2019-03-19T12:13:25.066Z,23.54
2019-03-19T12:15:51.369Z,23.85
2019-03-19T12:18:17.680Z,23.68
2019-03-19T12:20:44.020Z,23.79
2019-03-19T12:23:10.288Z,23.72
2019-03-19T12:25:36.592Z,23.03
2019-03-19T12:28:02.905Z,22.89
2019-03-19T12:30:29.211Z,23.22
2019-03-19T12:32:55.602Z,23.90
2019-03-19T12:35:21.916Z,24.01
2019-03-19T12:37:48.230Z,24.12
2019-03-19T12:40:14.546Z,23.97
2019-03-19T12:42:40.853Z,23.94
2019-03-19T12:45:07.162Z,23.99
2019-03-19T12:47:33.468Z,23.80
2019-03-19T12:49:59.825Z,23.64
2019-03-19T12:52:26.089Z,23.81
2019-03-19T12:54:52.588Z,23.84
2019-03-19T12:57:18.895Z,23.87
2019-03-19T12:59:45.368Z,23.41
2019-03-19T13:02:11.677Z,23.46
2019-03-19T13:04:37.985Z,23.25
2019-03-19T13:07:04.302Z,22.79
2019-03-19T13:09:30.611Z,22.47
2019-03-19T13:11:56.915Z,22.19
2019-03-19T13:14:23.225Z,21.86
2019-03-19T13:16:49.537Z,21.74
2019-03-19T13:19:15.910Z,21.45
2019-03-19T13:21:42.216Z,21.27
2019-03-19T13:24:08.525Z,21.11
2019-03-19T13:26:34.853Z,20.99
2019-03-19T13:29:01.170Z,21.02
2019-03-19T13:31:27.475Z,20.93
2019-03-19T13:33:53.786Z,20.84
2019-03-19T13:36:20.150Z,20.83
2019-03-19T13:38:46.463Z,20.87
2019-03-19T13:41:12.765Z,20.84
2019-03-19T13:43:39.101Z,20.90
2019-03-19T13:46:05.409Z,20.82
2019-03-19T13:48:31.760Z,20.72
2019-03-19T13:50:58.068Z,20.73
2019-03-19T13:53:24.376Z,20.72
2019-03-19T13:55:50.688Z,20.70
2019-03-19T13:58:16.991Z,20.67
2019-03-19T14:00:43.299Z,20.57
2019-03-19T14:03:09.604Z,20.48
2019-03-19T14:05:35.913Z,20.32
2019-03-19T14:08:02.254Z,20.32
2019-03-19T14:10:28.565Z,20.29
2019-03-19T14:12:54.867Z,20.34
2019-03-19T14:15:21.177Z,20.43
2019-03-19T14:17:47.489Z,20.18
2019-03-19T14:20:13.808Z,20.16
2019-03-19T14:22:40.119Z,19.91
2019-03-19T14:25:06.445Z,19.82
2019-03-19T14:27:32.757Z,19.95
2019-03-19T14:29:59.069Z,20.05
2019-03-19T14:32:25.382Z,20.03
2019-03-19T14:34:51.697Z,19.93
2019-03-19T14:37:18.011Z,19.92
2019-03-19T14:39:44.312Z,19.83
2019-03-19T14:42:10.628Z,19.66
2019-03-19T14:44:36.935Z,19.62
2019-03-19T14:47:03.270Z,19.55
2019-03-19T14:49:29.576Z,19.53
2019-03-19T14:51:55.885Z,19.46
2019-03-19T14:54:22.192Z,19.28
2019-03-19T14:56:48.500Z,19.09
2019-03-19T14:59:14.814Z,18.94
2019-03-19T15:01:41.124Z,18.87
2019-03-19T15:04:07.483Z,18.78
2019-03-19T15:06:33.853Z,18.68
2019-03-19T15:09:00.196Z,18.56
2019-03-19T15:11:26.511Z,18.53
2019-03-19T15:13:55.121Z,18.49
2019-03-19T15:16:19.308Z,18.41
2019-03-19T15:18:45.628Z,18.25
2019-03-19T15:21:11.956Z,18.12
2019-03-19T15:23:38.261Z,18.04
2019-03-19T15:26:04.574Z,17.96
2019-03-19T15:28:30.884Z,17.92
2019-03-19T15:30:57.196Z,17.96
2019-03-19T15:33:23.506Z,17.88
2019-03-19T15:38:35.148Z,17.89
2019-03-19T15:41:01.459Z,17.98
2019-03-19T15:43:27.765Z,17.99
2019-03-19T15:45:54.099Z,17.93
2019-03-19T15:48:20.410Z,17.90
2019-03-19T15:50:46.744Z,17.79
2019-03-19T15:53:13.053Z,17.75
2019-03-19T15:55:39.358Z,17.69
2019-03-19T15:58:05.668Z,17.60
2019-03-19T16:00:31.980Z,17.50
2019-03-19T16:02:58.293Z,17.42
2019-03-19T16:05:24.609Z,17.33
2019-03-19T16:07:51.131Z,17.20
2019-03-19T16:10:17.446Z,17.11
2019-03-19T16:12:43.806Z,17.09
2019-03-19T16:15:10.112Z,17.02
2019-03-19T16:17:36.415Z,16.97
2019-03-19T16:20:02.723Z,16.82
2019-03-19T16:22:29.031Z,16.64
2019-03-19T16:24:55.341Z,16.50
2019-03-19T16:27:21.698Z,16.49
2019-03-19T16:29:47.964Z,16.44
2019-03-19T16:32:14.264Z,16.39
2019-03-19T16:34:40.890Z,16.29
2019-03-19T16:37:07.218Z,16.18
2019-03-19T16:39:35.231Z,16.03
2019-03-19T16:42:00.020Z,15.98
2019-03-19T16:44:26.364Z,15.90
2019-03-19T16:46:52.679Z,15.82
2019-03-19T16:49:18.987Z,15.81
2019-03-19T16:51:45.296Z,15.77
2019-03-19T16:54:11.695Z,15.73
2019-03-19T16:56:38.015Z,15.66
2019-03-19T16:59:04.317Z,15.63
2019-03-19T17:01:30.628Z,15.58
2019-03-19T17:03:57.003Z,15.48
2019-03-19T17:06:23.269Z,15.42
2019-03-19T17:08:49.572Z,15.39
2019-03-19T17:11:15.904Z,15.36
2019-03-19T17:13:42.355Z,15.23
2019-03-19T17:16:08.655Z,15.13
2019-03-19T17:18:34.976Z,15.04
2019-03-19T17:21:01.295Z,15.04
2019-03-19T17:23:27.607Z,14.98
2019-03-19T17:25:53.915Z,14.90
2019-03-19T17:28:22.728Z,14.85
2019-03-19T17:30:46.535Z,14.81
2019-03-19T17:33:12.849Z,14.76
2019-03-19T17:35:39.181Z,14.82
2019-03-19T17:38:05.508Z,14.84
2019-03-19T17:40:41.317Z,14.79
2019-03-19T17:43:00.417Z,14.79
2019-03-19T17:45:26.728Z,14.71
2019-03-19T17:47:53.049Z,14.63
2019-03-19T17:50:19.366Z,14.63
2019-03-19T17:52:45.744Z,14.61
2019-03-19T17:55:11.996Z,14.55
2019-03-19T17:57:38.317Z,14.62
2019-03-19T18:00:04.750Z,14.63
2019-03-19T18:02:31.057Z,14.60
2019-03-19T18:04:57.370Z,14.64
2019-03-19T18:07:23.682Z,14.58
2019-03-19T18:09:49.999Z,14.45
2019-03-19T18:12:16.308Z,14.44
2019-03-19T18:14:42.661Z,14.54
2019-03-19T18:17:08.942Z,14.55
2019-03-19T18:19:35.250Z,14.45
2019-03-19T18:22:01.595Z,14.36
2019-03-19T18:24:27.910Z,14.32
2019-03-19T18:26:54.444Z,14.27
2019-03-19T18:29:20.764Z,14.20
2019-03-19T18:31:47.136Z,14.14
2019-03-19T18:34:13.406Z,14.18
2019-03-19T18:36:39.718Z,14.20
2019-03-19T18:39:06.026Z,14.13
2019-03-19T18:41:32.715Z,14.03
2019-03-19T18:43:59.226Z,13.93
2019-03-19T18:46:25.553Z,13.88
2019-03-19T18:48:51.871Z,13.98
2019-03-19T18:51:18.188Z,13.96
2019-03-19T18:53:48.441Z,14.07
2019-03-19T18:56:11.962Z,14.06
2019-03-19T18:58:38.244Z,13.99
2019-03-19T19:01:04.557Z,13.93
2019-03-19T19:03:30.929Z,13.89
2019-03-19T19:05:57.237Z,13.90
2019-03-19T19:08:23.557Z,13.89
2019-03-19T19:10:49.863Z,13.86
2019-03-19T19:13:16.175Z,13.85
2019-03-19T19:15:42.485Z,13.89
2019-03-19T19:18:08.871Z,13.75
2019-03-19T19:20:35.186Z,13.68
2019-03-19T19:23:02.970Z,13.70
2019-03-19T19:25:27.807Z,13.64
2019-03-19T19:27:54.114Z,13.55
2019-03-19T19:30:20.421Z,13.58
2019-03-19T19:32:46.732Z,13.88
2019-03-19T19:35:13.046Z,14.37
2019-03-19T19:37:39.381Z,14.52
2019-03-19T19:40:05.788Z,14.52
2019-03-19T19:42:32.095Z,14.52
2019-03-19T19:44:58.400Z,14.62
2019-03-19T19:47:24.714Z,14.52
2019-03-19T19:49:51.016Z,14.24
2019-03-19T19:52:17.324Z,14.19
2019-03-19T19:54:43.629Z,14.06
2019-03-19T19:57:11.193Z,13.96
2019-03-19T19:59:36.273Z,13.94
2019-03-19T20:02:02.637Z,13.81
2019-03-19T20:04:28.929Z,13.88
2019-03-19T20:06:55.308Z,13.72
2019-03-19T20:09:21.615Z,13.45
2019-03-19T20:11:47.937Z,13.33
2019-03-19T20:14:14.368Z,13.20
2019-03-19T20:16:40.707Z,13.09
2019-03-19T20:19:07.026Z,13.05
2019-03-19T20:21:33.374Z,13.10
2019-03-19T20:23:59.717Z,13.03
2019-03-19T20:26:26.029Z,13.04
2019-03-19T20:28:52.395Z,12.89
2019-03-19T20:31:18.705Z,12.83
2019-03-19T20:33:45.021Z,12.70
2019-03-19T20:36:11.337Z,12.70
2019-03-19T20:38:37.644Z,12.75
2019-03-19T20:41:03.957Z,12.73
2019-03-19T20:43:30.292Z,12.68
2019-03-19T20:45:56.598Z,12.46
2019-03-19T20:48:22.906Z,12.43
2019-03-19T20:50:49.214Z,12.39
2019-03-19T20:53:15.523Z,12.41
2019-03-19T20:55:41.828Z,12.37
2019-03-19T20:58:08.142Z,12.42
2019-03-19T21:00:34.444Z,12.45
2019-03-19T21:03:00.747Z,12.27
2019-03-19T21:05:27.053Z,12.08
2019-03-19T21:07:53.360Z,12.09
2019-03-19T21:10:19.668Z,12.04
2019-03-19T21:12:45.977Z,11.97
2019-03-19T21:15:12.292Z,11.88
2019-03-19T21:17:38.598Z,11.92
2019-03-19T21:20:04.904Z,11.87
2019-03-19T21:22:31.227Z,11.80
2019-03-19T21:24:57.546Z,11.68
2019-03-19T21:27:24.039Z,11.61
2019-03-19T21:29:52.271Z,11.59
2019-03-19T21:32:16.603Z,11.57
2019-03-19T21:34:42.912Z,11.53
2019-03-19T21:37:09.265Z,11.44
2019-03-19T21:39:35.584Z,11.39
2019-03-19T21:42:01.893Z,11.38
2019-03-19T21:44:28.221Z,11.32
2019-03-19T21:46:54.530Z,11.28
2019-03-19T21:49:20.855Z,11.16
2019-03-19T21:51:47.161Z,11.05
2019-03-19T21:54:13.543Z,11.03
2019-03-19T21:56:39.868Z,11.01
2019-03-19T21:59:06.214Z,10.94
2019-03-19T22:01:32.519Z,10.88
2019-03-19T22:04:03.088Z,10.84
2019-03-19T22:06:25.147Z,10.82
2019-03-19T22:08:51.453Z,10.76
2019-03-19T22:11:17.775Z,10.65
2019-03-19T22:13:44.087Z,10.55
2019-03-19T22:16:10.393Z,10.46
2019-03-19T22:18:36.703Z,10.43
2019-03-19T22:21:03.009Z,10.45
2019-03-19T22:23:29.312Z,10.40
2019-03-19T22:25:55.643Z,10.39
2019-03-19T22:28:21.960Z,10.34
2019-03-19T22:30:48.267Z,10.32
2019-03-19T22:33:14.575Z,10.27
2019-03-19T22:35:40.903Z,10.22
2019-03-19T22:38:07.209Z,10.28
2019-03-19T22:40:33.512Z,10.19
2019-03-19T22:42:59.827Z,10.15
2019-03-19T22:45:26.134Z,10.16
2019-03-19T22:47:52.439Z,10.16
2019-03-19T22:50:18.750Z,10.15
2019-03-19T22:52:45.076Z,10.16
2019-03-19T22:55:11.383Z,10.18
2019-03-19T22:57:37.692Z,10.14
2019-03-19T23:00:04.013Z,10.10
2019-03-19T23:02:30.319Z,10.00
2019-03-19T23:04:56.671Z,9.94
2019-03-19T23:07:22.980Z,9.99
2019-03-19T23:09:49.345Z,9.97
2019-03-19T23:12:15.621Z,9.98
2019-03-19T23:14:41.927Z,9.91
2019-03-19T23:17:08.232Z,9.92
2019-03-19T23:19:34.539Z,9.95
2019-03-19T23:22:00.847Z,9.89
2019-03-19T23:24:27.156Z,9.87
2019-03-19T23:26:53.461Z,9.82
2019-03-19T23:29:19.766Z,9.80
2019-03-19T23:31:46.073Z,9.80
2019-03-19T23:34:12.381Z,9.74
2019-03-19T23:36:38.690Z,9.72
2019-03-19T23:39:04.996Z,9.69
2019-03-19T23:41:31.326Z,9.69
2019-03-19T23:43:57.633Z,9.68
2019-03-19T23:46:23.934Z,9.64
2019-03-19T23:48:50.244Z,9.60
2019-03-19T23:51:16.549Z,9.63
2019-03-19T23:53:42.855Z,9.59
2019-03-19T23:56:09.157Z,9.61
2019-03-19T23:58:35.468Z,9.56
